createdAt,value
2023-03-29T00:01:00.189Z,101570.41
2023-03-29T00:03:27.498Z,101567.69
2023-03-29T00:06:02.870Z,101557.19
2023-03-29T00:08:31.363Z,101553.06
2023-03-29T00:10:59.313Z,101548.13
2023-03-29T00:13:26.893Z,101549.06
2023-03-29T00:15:54.397Z,101549.56
2023-03-29T00:18:21.146Z,101546.09
2023-03-29T00:20:54.521Z,101541.78
2023-03-29T00:23:22.591Z,101537.34
2023-03-29T00:25:49.193Z,101534.00
2023-03-29T00:28:15.785Z,101529.53
2023-03-29T00:30:42.427Z,101530.50
2023-03-29T00:33:09.116Z,101525.91
2023-03-29T00:35:38.228Z,101526.34
2023-03-29T00:38:06.209Z,101529.72
2023-03-29T00:40:33.752Z,101517.09
2023-03-29T00:43:00.624Z,101522.38
2023-03-29T00:45:30.354Z,101524.13
2023-03-29T00:48:00.309Z,101518.72
2023-03-29T00:50:56.368Z,101514.13
2023-03-29T00:53:42.153Z,101502.66
2023-03-29T00:56:12.325Z,101500.75
2023-03-29T00:58:46.688Z,101505.38
2023-03-29T01:01:21.467Z,101492.94
2023-03-29T01:04:03.123Z,101493.28
2023-03-29T01:06:31.379Z,101497.16
2023-03-29T01:09:01.312Z,101486.63
2023-03-29T01:11:36.892Z,101486.34
2023-03-29T01:14:06.969Z,101483.78
2023-03-29T01:16:36.063Z,101477.06
2023-03-29T01:19:03.116Z,101474.06
2023-03-29T01:21:33.407Z,101467.69
2023-03-29T01:24:07.330Z,101465.84
2023-03-29T01:26:42.681Z,101455.13
2023-03-29T01:29:28.554Z,101448.16
2023-03-29T01:31:59.629Z,101446.28
2023-03-29T01:34:32.692Z,101442.41
2023-03-29T01:37:04.538Z,101437.47
2023-03-29T01:39:31.633Z,101438.91
2023-03-29T01:42:48.554Z,101441.44
2023-03-29T01:45:20.944Z,101432.09
2023-03-29T01:48:06.193Z,101426.81
2023-03-29T01:50:44.940Z,101417.34
2023-03-29T01:53:18.150Z,101418.63
2023-03-29T01:55:53.383Z,101418.47
2023-03-29T01:58:22.536Z,101409.72
2023-03-29T02:00:50.821Z,101406.50
2023-03-29T02:03:18.930Z,101407.16
2023-03-29T02:05:47.030Z,101408.72
2023-03-29T02:08:16.121Z,101396.91
2023-03-29T02:10:42.791Z,101403.31
2023-03-29T02:13:11.090Z,101400.75
2023-03-29T02:15:38.522Z,101401.69
2023-03-29T02:18:06.635Z,101396.00
2023-03-29T02:20:39.079Z,101395.16
2023-03-29T02:23:18.057Z,101392.59
2023-03-29T02:25:45.716Z,101382.31
2023-03-29T02:28:12.884Z,101372.75
2023-03-29T02:30:55.027Z,101366.97
2023-03-29T02:33:39.051Z,101371.31
2023-03-29T02:36:13.645Z,101363.34
2023-03-29T02:38:40.690Z,101357.25
2023-03-29T02:41:08.047Z,101355.31
2023-03-29T02:43:35.385Z,101358.50
2023-03-29T02:46:03.077Z,101359.91
2023-03-29T02:48:30.238Z,101355.31
2023-03-29T02:50:59.906Z,101352.25
2023-03-29T02:53:34.669Z,101350.72
2023-03-29T02:56:02.267Z,101341.41
2023-03-29T02:58:29.534Z,101336.88
2023-03-29T03:00:58.716Z,101333.91
2023-03-29T03:03:25.483Z,101330.56
2023-03-29T03:05:52.622Z,101328.34
2023-03-29T03:08:19.841Z,101323.78
2023-03-29T03:10:47.691Z,101322.69
2023-03-29T03:13:14.314Z,101322.38
2023-03-29T03:15:42.833Z,101318.44
2023-03-29T03:18:10.630Z,101320.81
2023-03-29T03:20:37.239Z,101323.66
2023-03-29T03:23:03.799Z,101321.91
2023-03-29T03:25:31.746Z,101318.31
2023-03-29T03:27:58.509Z,101308.75
2023-03-29T03:30:25.455Z,101309.69
2023-03-29T03:33:11.537Z,101307.63
2023-03-29T03:36:06.855Z,101303.94
2023-03-29T03:38:36.216Z,101298.59
2023-03-29T03:41:03.720Z,101302.25
2023-03-29T03:43:34.020Z,101301.44
2023-03-29T03:46:00.736Z,101296.72
2023-03-29T03:48:27.866Z,101293.84
2023-03-29T03:50:59.840Z,101291.31
2023-03-29T03:53:32.227Z,101290.66
2023-03-29T03:56:14.214Z,101293.38
2023-03-29T03:59:05.423Z,101293.66
2023-03-29T04:01:46.268Z,101293.03
2023-03-29T04:04:23.398Z,101287.16
2023-03-29T04:07:14.221Z,101285.25
2023-03-29T04:09:59.386Z,101284.63
2023-03-29T04:12:48.859Z,101288.13
2023-03-29T04:15:17.803Z,101287.16
2023-03-29T04:17:50.888Z,101286.53
2023-03-29T04:20:24.190Z,101288.78
2023-03-29T04:22:51.341Z,101287.00
2023-03-29T04:25:19.249Z,101278.75
2023-03-29T04:27:46.136Z,101282.25
2023-03-29T04:30:30.690Z,101275.75
2023-03-29T04:33:09.526Z,101283.69
2023-03-29T04:35:38.713Z,101278.28
2023-03-29T04:38:10.146Z,101277.03
2023-03-29T04:40:38.410Z,101274.94
2023-03-29T04:43:17.885Z,101278.91
2023-03-29T04:45:55.156Z,101274.28
2023-03-29T04:48:37.609Z,101268.44
2023-03-29T04:51:04.308Z,101273.66
2023-03-29T04:53:32.846Z,101266.69
2023-03-29T04:55:59.672Z,101269.72
2023-03-29T04:58:44.713Z,101267.19
2023-03-29T05:01:11.883Z,101255.41
2023-03-29T05:03:43.013Z,101256.44
2023-03-29T05:06:17.032Z,101247.19
2023-03-29T05:08:44.542Z,101245.09
2023-03-29T05:11:24.303Z,101250.47
2023-03-29T05:13:51.178Z,101254.94
2023-03-29T05:16:18.596Z,101248.09
2023-03-29T05:18:45.295Z,101244.72
2023-03-29T05:21:12.095Z,101249.19
2023-03-29T05:23:41.624Z,101240.78
2023-03-29T05:26:16.974Z,101243.28
2023-03-29T05:28:49.751Z,101242.19
2023-03-29T05:31:17.288Z,101239.00
2023-03-29T05:33:48.042Z,101246.97
2023-03-29T05:36:16.732Z,101241.19
2023-03-29T05:38:49.941Z,101242.47
2023-03-29T05:41:26.517Z,101240.06
2023-03-29T05:44:15.807Z,101240.50
2023-03-29T05:46:44.925Z,101239.97
2023-03-29T05:49:16.460Z,101241.03
2023-03-29T05:51:57.533Z,101234.59
2023-03-29T05:54:26.233Z,101232.34
2023-03-29T05:56:52.873Z,101234.97
2023-03-29T05:59:19.807Z,101235.56
2023-03-29T06:01:48.688Z,101238.00
2023-03-29T06:04:19.104Z,101238.53
2023-03-29T06:06:55.751Z,101233.03
2023-03-29T06:09:22.755Z,101227.91
2023-03-29T06:11:58.930Z,101236.63
2023-03-29T06:14:41.707Z,101232.75
2023-03-29T06:17:19.945Z,101233.59
2023-03-29T06:19:47.629Z,101230.53
2023-03-29T06:22:15.145Z,101232.41
2023-03-29T06:24:42.245Z,101231.75
2023-03-29T06:27:16.309Z,101225.66
2023-03-29T06:29:43.357Z,101233.66
2023-03-29T06:32:11.123Z,101224.03
2023-03-29T06:35:10.145Z,101226.78
2023-03-29T06:37:41.007Z,101224.44
2023-03-29T06:40:19.232Z,101229.69
2023-03-29T06:42:50.967Z,101228.47
2023-03-29T06:45:42.764Z,101227.25
2023-03-29T06:48:18.989Z,101222.72
2023-03-29T06:50:48.334Z,101225.41
2023-03-29T06:53:17.011Z,101224.81
2023-03-29T06:55:49.516Z,101217.75
2023-03-29T06:58:35.635Z,101221.72
2023-03-29T07:01:09.282Z,101215.53
2023-03-29T07:03:50.183Z,101211.25
2023-03-29T07:06:22.314Z,101223.31
2023-03-29T07:08:52.410Z,101221.63
2023-03-29T07:11:35.340Z,101217.78
2023-03-29T07:14:15.697Z,101222.06
2023-03-29T07:16:42.370Z,101221.28
2023-03-29T07:19:19.751Z,101223.75
2023-03-29T07:21:55.160Z,101217.75
2023-03-29T07:24:29.522Z,101219.09
2023-03-29T07:27:04.057Z,101226.34
2023-03-29T07:29:32.115Z,101217.06
2023-03-29T07:31:59.003Z,101225.34
2023-03-29T07:34:49.257Z,101224.88
2023-03-29T07:37:26.916Z,101218.19
2023-03-29T07:39:54.854Z,101220.97
2023-03-29T07:42:39.846Z,101216.53
2023-03-29T07:45:10.800Z,101213.75
2023-03-29T07:47:54.385Z,101213.41
2023-03-29T07:50:21.058Z,101203.19
2023-03-29T07:52:48.284Z,101208.00
2023-03-29T07:55:15.458Z,101203.59
2023-03-29T07:58:03.047Z,101211.25
2023-03-29T08:00:29.972Z,101206.47
2023-03-29T08:03:17.102Z,101208.66
2023-03-29T08:05:43.891Z,101211.97
2023-03-29T08:08:14.381Z,101203.66
2023-03-29T08:11:04.910Z,101203.03
2023-03-29T08:13:36.474Z,101207.28
2023-03-29T08:16:26.838Z,101211.34
2023-03-29T08:19:05.319Z,101224.63
2023-03-29T08:21:48.529Z,101216.91
2023-03-29T08:24:16.108Z,101211.88
2023-03-29T08:26:48.791Z,101205.94
2023-03-29T08:29:18.238Z,101197.34
2023-03-29T08:31:45.205Z,101190.66
2023-03-29T08:34:11.938Z,101184.78
2023-03-29T08:36:58.533Z,101180.09
2023-03-29T08:39:38.089Z,101184.03
2023-03-29T08:42:32.777Z,101180.47
2023-03-29T08:45:19.179Z,101176.16
2023-03-29T08:47:53.220Z,101174.13
2023-03-29T08:50:21.133Z,101171.88
2023-03-29T08:52:55.416Z,101167.16
2023-03-29T08:55:47.337Z,101163.59
2023-03-29T08:58:40.592Z,101174.31
2023-03-29T09:01:09.246Z,101168.47
2023-03-29T09:03:49.994Z,101159.44
2023-03-29T09:06:28.894Z,101163.28
2023-03-29T09:09:13.527Z,101163.13
2023-03-29T09:11:48.852Z,101166.69
2023-03-29T09:14:39.216Z,101156.63
2023-03-29T09:17:29.564Z,101151.91
2023-03-29T09:20:21.059Z,101163.72
2023-03-29T09:23:00.816Z,101159.28
2023-03-29T09:25:54.163Z,101171.69
2023-03-29T09:28:51.004Z,101159.53
2023-03-29T09:31:22.972Z,101148.75
2023-03-29T09:33:56.228Z,101152.56
2023-03-29T09:36:51.547Z,101159.03
2023-03-29T09:39:21.085Z,101146.75
2023-03-29T09:41:56.191Z,101147.44
2023-03-29T09:44:31.145Z,101143.97
2023-03-29T09:47:08.619Z,101140.47
2023-03-29T09:49:40.332Z,101142.53
2023-03-29T09:52:12.628Z,101149.50
2023-03-29T09:54:41.661Z,101143.72
2023-03-29T09:57:36.299Z,101140.25
2023-03-29T10:00:05.866Z,101130.72
2023-03-29T10:02:40.620Z,101130.09
2023-03-29T10:05:16.335Z,101133.09
2023-03-29T10:07:52.787Z,101122.28
2023-03-29T10:10:29.260Z,101129.94
2023-03-29T10:13:07.406Z,101116.63
2023-03-29T10:15:33.911Z,101112.66
2023-03-29T10:18:10.881Z,101114.22
2023-03-29T10:20:40.427Z,101109.19
2023-03-29T10:23:08.897Z,101100.94
2023-03-29T10:25:42.623Z,101092.28
2023-03-29T10:28:16.502Z,101103.03
2023-03-29T10:30:47.574Z,101094.78
2023-03-29T10:33:19.699Z,101099.13
2023-03-29T10:35:47.221Z,101092.94
2023-03-29T10:38:16.133Z,101097.28
2023-03-29T10:40:45.208Z,101090.34
2023-03-29T10:43:19.382Z,101090.63
2023-03-29T10:45:50.851Z,101091.38
2023-03-29T10:48:17.984Z,101081.34
2023-03-29T10:50:49.824Z,101083.66
2023-03-29T10:53:24.112Z,101081.66
2023-03-29T10:56:02.834Z,101075.81
2023-03-29T10:58:46.638Z,101067.50
2023-03-29T11:01:18.456Z,101069.59
2023-03-29T11:04:18.365Z,101056.69
2023-03-29T11:07:01.530Z,101055.56
2023-03-29T11:09:37.482Z,101060.22
2023-03-29T11:12:39.768Z,101055.59
2023-03-29T11:15:32.657Z,101052.41
2023-03-29T11:18:22.252Z,101055.19
2023-03-29T11:20:54.746Z,101058.31
2023-03-29T11:23:39.847Z,101064.19
2023-03-29T11:26:15.166Z,101050.88
2023-03-29T11:28:49.199Z,101038.72
2023-03-29T11:31:28.457Z,101051.25
2023-03-29T11:34:12.368Z,101037.50
2023-03-29T11:36:44.653Z,101040.72
2023-03-29T11:39:29.937Z,101037.56
2023-03-29T11:42:03.373Z,101035.19
2023-03-29T11:44:31.454Z,101031.28
2023-03-29T11:47:03.136Z,101037.84
2023-03-29T11:49:38.701Z,101041.72
2023-03-29T11:52:17.860Z,101045.16
2023-03-29T11:55:06.408Z,101036.97
2023-03-29T11:57:44.085Z,101031.78
2023-03-29T12:00:15.764Z,101030.56
2023-03-29T12:02:46.438Z,101042.34
2023-03-29T12:05:16.004Z,101044.00
2023-03-29T12:07:48.904Z,101044.03
2023-03-29T12:10:18.934Z,101042.94
2023-03-29T12:12:48.969Z,101028.13
2023-03-29T12:15:24.882Z,101027.59
2023-03-29T12:18:16.702Z,101026.75
2023-03-29T12:20:46.938Z,101025.94
2023-03-29T12:23:15.183Z,101020.31
2023-03-29T12:25:53.740Z,101027.38
2023-03-29T12:28:48.880Z,101021.13
2023-03-29T12:31:23.304Z,101016.44
2023-03-29T12:34:17.324Z,101017.97
2023-03-29T12:37:00.401Z,101015.59
2023-03-29T12:39:45.843Z,101018.75
2023-03-29T12:42:31.450Z,101008.97
2023-03-29T12:45:21.742Z,101004.31
2023-03-29T12:47:50.943Z,100990.56
2023-03-29T12:50:28.522Z,101000.28
2023-03-29T12:53:06.368Z,101000.59
2023-03-29T12:55:42.416Z,101000.19
2023-03-29T12:58:30.668Z,100985.00
2023-03-29T13:01:07.923Z,100981.91
2023-03-29T13:03:45.191Z,100974.31
2023-03-29T13:06:13.122Z,100972.81
2023-03-29T13:08:42.558Z,100969.38
2023-03-29T13:11:13.420Z,100962.28
2023-03-29T13:13:40.841Z,100973.28
2023-03-29T13:16:16.676Z,100983.81
2023-03-29T13:19:06.748Z,100983.94
2023-03-29T13:21:57.074Z,100985.88
2023-03-29T13:24:43.799Z,100974.13
2023-03-29T13:27:18.030Z,100967.09
2023-03-29T13:29:58.793Z,100980.41
2023-03-29T13:32:28.454Z,100982.75
2023-03-29T13:35:02.315Z,100980.03
2023-03-29T13:37:54.217Z,100969.47
2023-03-29T13:40:57.648Z,100978.03
2023-03-29T13:43:36.532Z,100967.88
2023-03-29T13:46:03.882Z,100971.81
2023-03-29T13:48:37.702Z,100967.13
2023-03-29T13:51:28.483Z,100967.09
2023-03-29T13:53:58.546Z,100959.22
2023-03-29T13:56:28.915Z,100950.25
2023-03-29T13:59:03.661Z,100960.09
2023-03-29T14:01:43.439Z,100954.59
2023-03-29T14:04:17.110Z,100946.34
2023-03-29T14:06:48.272Z,100945.19
2023-03-29T14:09:15.371Z,100953.38
2023-03-29T14:11:44.609Z,100949.13
2023-03-29T14:14:11.466Z,100963.97
2023-03-29T14:16:39.678Z,100965.53
2023-03-29T14:19:13.478Z,100960.81
2023-03-29T14:21:41.321Z,100958.84
2023-03-29T14:24:12.788Z,100957.66
2023-03-29T14:26:44.340Z,100950.63
2023-03-29T14:29:11.913Z,100951.44
2023-03-29T14:31:40.573Z,100945.03
2023-03-29T14:34:18.601Z,100953.00
2023-03-29T14:36:48.787Z,100951.81
2023-03-29T14:39:17.746Z,100956.13
2023-03-29T14:41:49.957Z,100945.16
2023-03-29T14:44:16.619Z,100949.06
2023-03-29T14:46:44.310Z,100947.06
2023-03-29T14:49:15.497Z,100947.53
2023-03-29T14:51:41.945Z,100939.56
2023-03-29T14:54:16.658Z,100946.31
2023-03-29T14:56:43.325Z,100936.94
2023-03-29T14:59:24.353Z,100930.72
2023-03-29T15:01:50.942Z,100934.94
2023-03-29T15:04:17.512Z,100940.47
2023-03-29T15:06:46.782Z,100933.38
2023-03-29T15:09:18.508Z,100940.47
2023-03-29T15:11:51.753Z,100940.50
2023-03-29T15:14:19.683Z,100934.59
2023-03-29T15:16:48.381Z,100934.16
2023-03-29T15:19:18.151Z,100922.06
2023-03-29T15:21:45.317Z,100922.06
2023-03-29T15:24:32.505Z,100915.84
2023-03-29T15:27:03.554Z,100906.06
2023-03-29T15:29:33.983Z,100894.38
2023-03-29T15:32:00.516Z,100896.72
2023-03-29T15:34:29.594Z,100893.56
2023-03-29T15:36:59.535Z,100881.84
2023-03-29T15:39:29.530Z,100883.78
2023-03-29T15:41:57.266Z,100879.13
2023-03-29T15:44:29.013Z,100870.50
2023-03-29T15:46:57.778Z,100872.47
2023-03-29T15:49:25.234Z,100871.31
2023-03-29T15:51:54.006Z,100866.97
2023-03-29T15:54:21.563Z,100863.06
2023-03-29T15:56:52.003Z,100863.06
2023-03-29T15:59:18.790Z,100861.91
2023-03-29T16:01:46.791Z,100856.81
2023-03-29T16:04:16.868Z,100854.47
2023-03-29T16:06:44.715Z,100851.72
2023-03-29T16:09:12.001Z,100852.91
2023-03-29T16:11:40.897Z,100847.03
2023-03-29T16:14:26.997Z,100850.13
2023-03-29T16:17:00.485Z,100852.94
2023-03-29T16:19:27.932Z,100855.25
2023-03-29T16:21:55.316Z,100852.13
2023-03-29T16:24:24.189Z,100849.03
2023-03-29T16:26:54.018Z,100850.56
2023-03-29T16:29:22.139Z,100856.03
2023-03-29T16:31:49.596Z,100859.97
2023-03-29T16:34:18.723Z,100860.72
2023-03-29T16:36:46.315Z,100862.69
2023-03-29T16:39:15.966Z,100850.56
2023-03-29T16:41:42.973Z,100855.28
2023-03-29T16:44:15.856Z,100847.44
2023-03-29T16:46:42.412Z,100850.19
2023-03-29T16:49:13.868Z,100856.44
2023-03-29T16:51:40.443Z,100856.84
2023-03-29T16:54:07.402Z,100854.50
2023-03-29T16:56:36.459Z,100853.72
2023-03-29T16:59:03.489Z,100856.84
2023-03-29T17:01:30.501Z,100856.44
2023-03-29T17:03:57.271Z,100852.13
2023-03-29T17:06:23.905Z,100848.25
2023-03-29T17:08:50.587Z,100839.63
2023-03-29T17:11:17.524Z,100847.03
2023-03-29T17:13:44.605Z,100845.09
2023-03-29T17:16:11.242Z,100852.94
2023-03-29T17:18:37.929Z,100851.75
2023-03-29T17:21:04.686Z,100850.56
2023-03-29T17:23:31.694Z,100846.28
2023-03-29T17:25:58.179Z,100840.78
2023-03-29T17:28:24.834Z,100839.25
2023-03-29T17:30:51.607Z,100828.28
2023-03-29T17:33:22.907Z,100842.78
2023-03-29T17:35:49.675Z,100837.28
2023-03-29T17:38:16.549Z,100829.44
2023-03-29T17:40:43.138Z,100834.56
2023-03-29T17:43:09.716Z,100834.94
2023-03-29T17:45:36.588Z,100827.13
2023-03-29T17:48:06.541Z,100836.13
2023-03-29T17:50:33.686Z,100832.59
2023-03-29T17:53:00.606Z,100838.88
2023-03-29T17:55:27.622Z,100834.53
2023-03-29T17:57:54.579Z,100833.38
2023-03-29T18:00:21.453Z,100841.97
2023-03-29T18:02:48.440Z,100836.50
2023-03-29T18:05:15.081Z,100834.13
2023-03-29T18:07:41.565Z,100839.22
2023-03-29T18:10:08.595Z,100835.31
2023-03-29T18:12:35.236Z,100833.75
2023-03-29T18:15:02.203Z,100834.91
2023-03-29T18:17:28.752Z,100836.50
2023-03-29T18:19:55.299Z,100839.63
2023-03-29T18:22:24.876Z,100836.50
2023-03-29T18:24:51.989Z,100843.53
2023-03-29T18:27:18.823Z,100839.63
2023-03-29T18:29:45.486Z,100841.97
2023-03-29T18:32:12.145Z,100840.41
2023-03-29T18:34:39.488Z,100844.31
2023-03-29T18:37:06.341Z,100842.75
2023-03-29T18:39:35.783Z,100840.41
2023-03-29T18:42:02.307Z,100843.94
2023-03-29T18:44:29.156Z,100837.66
2023-03-29T18:46:57.679Z,100834.94
2023-03-29T18:49:25.725Z,100833.75
2023-03-29T18:51:52.368Z,100840.41
2023-03-29T18:54:18.993Z,100843.94
2023-03-29T18:56:45.678Z,100838.06
2023-03-29T18:59:12.401Z,100843.16
2023-03-29T19:01:44.834Z,100840.81
2023-03-29T19:04:13.448Z,100845.88
2023-03-29T19:06:43.644Z,100842.34
2023-03-29T19:09:10.209Z,100831.03
2023-03-29T19:11:36.724Z,100836.88
2023-03-29T19:14:04.628Z,100838.06
2023-03-29T19:16:31.762Z,100827.88
2023-03-29T19:18:58.239Z,100824.00
2023-03-29T19:21:24.740Z,100832.59
2023-03-29T19:23:52.886Z,100829.47
2023-03-29T19:26:19.487Z,100822.44
2023-03-29T19:28:46.045Z,100828.28
2023-03-29T19:31:12.664Z,100825.94
2023-03-29T19:33:40.873Z,100820.09
2023-03-29T19:36:07.917Z,100815.41
2023-03-29T19:38:34.636Z,100812.66
2023-03-29T19:41:01.309Z,100813.03
2023-03-29T19:43:27.872Z,100814.59
2023-03-29T19:45:54.439Z,100805.25
2023-03-29T19:48:23.825Z,100808.38
2023-03-29T19:50:51.417Z,100813.06
2023-03-29T19:53:17.971Z,100811.47
2023-03-29T19:55:45.097Z,100806.41
2023-03-29T19:58:11.937Z,100798.19
2023-03-29T20:00:39.084Z,100800.53
2023-03-29T20:03:10.005Z,100791.16
2023-03-29T20:05:37.045Z,100792.66
2023-03-29T20:08:03.940Z,100787.66
2023-03-29T20:10:30.526Z,100784.53
2023-03-29T20:12:57.211Z,100787.25
2023-03-29T20:15:27.159Z,100790.78
2023-03-29T20:17:57.043Z,100790.78
2023-03-29T20:20:31.852Z,100785.28
2023-03-29T20:23:04.672Z,100785.69
2023-03-29T20:25:35.877Z,100786.47
2023-03-29T20:28:06.632Z,100783.75
2023-03-29T20:30:33.531Z,100776.31
2023-03-29T20:33:00.195Z,100777.88
2023-03-29T20:35:27.362Z,100770.06
2023-03-29T20:37:54.007Z,100764.59
2023-03-29T20:40:20.921Z,100772.00
2023-03-29T20:42:48.918Z,100768.13
2023-03-29T20:45:18.730Z,100763.81
2023-03-29T20:47:50.524Z,100765.38
2023-03-29T20:50:22.471Z,100751.31
2023-03-29T20:52:49.112Z,100754.44
2023-03-29T20:55:17.089Z,100747.41
2023-03-29T20:57:43.603Z,100743.13
2023-03-29T21:00:11.938Z,100750.16
2023-03-29T21:02:41.771Z,100745.84
2023-03-29T21:05:08.750Z,100739.19
2023-03-29T21:07:35.382Z,100742.72
2023-03-29T21:10:02.838Z,100748.16
2023-03-29T21:12:29.334Z,100746.63
2023-03-29T21:14:56.700Z,100750.13
2023-03-29T21:17:23.260Z,100739.56
2023-03-29T21:19:49.786Z,100732.94
2023-03-29T21:22:17.574Z,100741.13
2023-03-29T21:24:44.065Z,100738.78
2023-03-29T21:27:10.643Z,100732.16
2023-03-29T21:29:37.205Z,100731.78
2023-03-29T21:32:04.582Z,100718.88
2023-03-29T21:34:31.257Z,100713.00
2023-03-29T21:36:57.770Z,100711.03
2023-03-29T21:39:27.773Z,100698.94
2023-03-29T21:41:54.384Z,100697.38
2023-03-29T21:44:20.944Z,100695.44
2023-03-29T21:46:47.445Z,100697.38
2023-03-29T21:49:13.989Z,100693.88
2023-03-29T21:51:40.577Z,100684.09
2023-03-29T21:54:07.109Z,100684.91
2023-03-29T21:56:33.597Z,100682.19
2023-03-29T21:59:00.195Z,100685.66
2023-03-29T22:01:27.113Z,100687.25
2023-03-29T22:03:53.704Z,100688.41
2023-03-29T22:06:20.749Z,100681.41
2023-03-29T22:08:49.481Z,100677.88
2023-03-29T22:11:17.124Z,100680.25
2023-03-29T22:13:44.133Z,100676.31
2023-03-29T22:16:16.799Z,100674.00
2023-03-29T22:18:46.816Z,100675.56
2023-03-29T22:21:15.557Z,100683.34
2023-03-29T22:23:43.781Z,100677.50
2023-03-29T22:26:12.186Z,100670.47
2023-03-29T22:28:39.417Z,100665.38
2023-03-29T22:31:08.485Z,100661.47
2023-03-29T22:33:36.038Z,100666.16
2023-03-29T22:36:03.621Z,100666.94
2023-03-29T22:38:30.124Z,100659.91
2023-03-29T22:40:56.638Z,100662.25
2023-03-29T22:43:23.307Z,100654.41
2023-03-29T22:45:49.815Z,100650.53
2023-03-29T22:48:16.500Z,100664.59
2023-03-29T22:50:46.404Z,100647.41
2023-03-29T22:53:13.264Z,100650.56
2023-03-29T22:55:40.000Z,100650.53
2023-03-29T22:58:06.536Z,100648.97
2023-03-29T23:00:33.145Z,100641.94
2023-03-29T23:02:59.711Z,100642.72
2023-03-29T23:05:26.286Z,100636.88
2023-03-29T23:07:52.862Z,100636.50
2023-03-29T23:10:19.384Z,100630.22
2023-03-29T23:12:45.907Z,100629.44
2023-03-29T23:15:12.668Z,100627.50
2023-03-29T23:17:39.213Z,100619.31
2023-03-29T23:20:06.388Z,100624.78
2023-03-29T23:22:34.230Z,100622.44
2023-03-29T23:25:00.704Z,100622.03
2023-03-29T23:27:27.223Z,100616.94
2023-03-29T23:29:55.465Z,100609.94
2023-03-29T23:32:22.778Z,100613.84
2023-03-29T23:34:49.378Z,100611.50
2023-03-29T23:37:15.942Z,100609.13
2023-03-29T23:39:42.452Z,100606.41
2023-03-29T23:42:08.969Z,100602.53
2023-03-29T23:44:35.529Z,100606.03
2023-03-29T23:47:02.281Z,100606.03
2023-03-29T23:49:30.077Z,100600.19
2023-03-29T23:52:00.130Z,100598.19
2023-03-29T23:54:27.500Z,100599.00
2023-03-29T23:56:54.125Z,100597.84
2023-03-29T23:59:22.714Z,100600.19
